Time;durP1;ratioP1;P1;durP2;ratioP2;P2;SDS_P1;SDS_P2;PMS_P1;PMS_P2;Temp;Humidity;BMP_temperature;BMP_pressure;BME280_temperature;BME280_humidity;BME280_pressure;Samples;Min_cycle;Max_cycle;Signal;HPM_P1;HPM_P2
2023/06/19 00:00:13;;;;;;;11.30;7.30;;;23.30;67.90;;;;;;5055923;28;20037;-85
2023/06/19 00:02:43;;;;;;;9.80;7.47;;;23.40;67.80;;;;;;5072863;28;20044;-85
2023/06/19 00:05:09;;;;;;;9.98;7.22;;;23.40;67.90;;;;;;5072752;28;20033;-85
2023/06/19 00:07:38;;;;;;;10.18;7.82;;;23.30;67.80;;;;;;5072882;28;20028;-85
2023/06/19 00:10:05;;;;;;;9.90;7.53;;;23.30;67.70;;;;;;5072371;28;20037;-85
2023/06/19 00:12:32;;;;;;;11.05;7.10;;;23.30;67.40;;;;;;5072842;28;20044;-84
2023/06/19 00:14:57;;;;;;;11.63;7.45;;;23.30;67.40;;;;;;5072827;28;20517;-85
2023/06/19 00:17:26;;;;;;;9.43;7.25;;;23.30;67.40;;;;;;5072687;28;20041;-84
2023/06/19 00:19:52;;;;;;;11.30;7.70;;;23.30;67.10;;;;;;5072287;28;20047;-84
2023/06/19 00:22:18;;;;;;;9.15;7.00;;;23.30;67.20;;;;;;5072586;28;20097;-84
2023/06/19 00:24:44;;;;;;;10.75;7.45;;;23.30;67.00;;;;;;5072731;28;20044;-85
2023/06/19 00:27:09;;;;;;;9.80;7.20;;;23.30;66.90;;;;;;5072281;28;20406;-85
2023/06/19 00:29:35;;;;;;;9.60;7.28;;;23.30;67.00;;;;;;5072143;28;20115;-85
2023/06/19 00:32:01;;;;;;;11.52;7.55;;;23.30;67.20;;;;;;5072317;28;20045;-85
2023/06/19 00:34:30;;;;;;;11.73;8.05;;;23.30;66.70;;;;;;5072331;28;20044;-85
2023/06/19 00:36:57;;;;;;;11.70;7.65;;;23.30;66.80;;;;;;5072144;28;20601;-85
2023/06/19 00:39:23;;;;;;;9.80;6.90;;;23.30;66.90;;;;;;5072404;28;20040;-85
2023/06/19 00:41:52;;;;;;;10.43;7.00;;;23.30;66.90;;;;;;5055446;28;20040;-84
2023/06/19 00:44:17;;;;;;;12.20;7.50;;;23.30;66.90;;;;;;5055567;28;20047;-85
2023/06/19 00:46:43;;;;;;;9.13;7.10;;;23.30;66.80;;;;;;5071759;28;20037;-85
2023/06/19 00:49:09;;;;;;;9.27;6.75;;;23.30;66.50;;;;;;5071959;28;20040;-85
2023/06/19 00:51:35;;;;;;;10.70;7.55;;;23.30;66.80;;;;;;5071871;28;20032;-85
2023/06/19 00:54:00;;;;;;;10.00;6.57;;;23.30;66.50;;;;;;5071963;28;20560;-84
2023/06/19 00:56:26;;;;;;;9.90;7.07;;;23.30;66.50;;;;;;5071951;28;20067;-85
2023/06/19 00:58:53;;;;;;;9.68;7.22;;;23.30;66.60;;;;;;5071890;28;20127;-85
2023/06/19 01:01:21;;;;;;;10.85;7.25;;;23.30;66.50;;;;;;5071412;28;20044;-85
2023/06/19 01:03:46;;;;;;;10.30;7.32;;;23.30;66.80;;;;;;5055054;28;20051;-85
2023/06/19 01:06:21;;;;;;;9.40;7.05;;;23.30;66.80;;;;;;5072776;28;20036;-84
2023/06/19 01:08:47;;;;;;;9.45;7.05;;;23.30;67.20;;;;;;5055282;28;20189;-85
2023/06/19 01:11:17;;;;;;;10.98;7.57;;;23.20;67.50;;;;;;5071458;28;20522;-85
2023/06/19 01:13:55;;;;;;;9.90;7.10;;;23.20;67.30;;;;;;5071419;28;20032;-85
2023/06/19 01:16:22;;;;;;;9.90;7.60;;;23.20;66.90;;;;;;5054807;28;20452;-85
2023/06/19 01:18:49;;;;;;;10.82;6.88;;;23.20;67.30;;;;;;5071653;28;20490;-85
2023/06/19 01:21:17;;;;;;;10.60;7.10;;;23.20;67.20;;;;;;5071087;28;20044;-84
2023/06/19 01:23:43;;;;;;;10.20;7.32;;;23.20;67.40;;;;;;5071456;28;20402;-85
2023/06/19 01:26:10;;;;;;;10.57;7.32;;;23.20;67.30;;;;;;5071147;28;20044;-85
2023/06/19 01:28:37;;;;;;;9.45;7.15;;;23.20;68.20;;;;;;5071437;28;20119;-85
2023/06/19 01:31:21;;;;;;;10.50;6.78;;;23.20;67.90;;;;;;5071167;28;20048;-85
2023/06/19 01:33:49;;;;;;;10.15;7.30;;;23.20;67.70;;;;;;5071072;28;20559;-85
2023/06/19 01:36:17;;;;;;;10.10;7.20;;;23.10;67.70;;;;;;5072639;28;20046;-85
2023/06/19 01:38:44;;;;;;;10.20;7.13;;;23.10;67.80;;;;;;5070966;28;20169;-84
2023/06/19 01:41:10;;;;;;;12.32;7.78;;;23.20;67.90;;;;;;5070710;28;20048;-85
2023/06/19 01:43:37;;;;;;;9.73;7.18;;;23.10;67.90;;;;;;5071000;28;20033;-85
2023/06/19 01:46:02;;;;;;;10.20;7.38;;;23.10;68.50;;;;;;5054139;28;20036;-85
2023/06/19 01:48:29;;;;;;;9.50;7.40;;;23.10;68.40;;;;;;5071178;28;20089;-85
2023/06/19 01:50:55;;;;;;;10.60;7.03;;;23.10;68.40;;;;;;5070621;28;20043;-85
2023/06/19 01:53:20;;;;;;;11.80;7.97;;;23.10;68.80;;;;;;5070777;28;20037;-85
2023/06/19 01:55:46;;;;;;;10.55;7.40;;;23.10;68.90;;;;;;5070801;28;20052;-85
2023/06/19 01:58:12;;;;;;;10.18;7.30;;;23.10;69.10;;;;;;5070518;28;20042;-85
2023/06/19 02:00:37;;;;;;;12.07;7.78;;;23.10;69.40;;;;;;5070115;28;20036;-85
2023/06/19 02:03:04;;;;;;;11.02;7.25;;;23.10;69.60;;;;;;5070750;28;20450;-84
2023/06/19 02:05:34;;;;;;;11.43;7.70;;;23.10;69.60;;;;;;5070593;28;20044;-85
2023/06/19 02:07:59;;;;;;;10.38;7.65;;;23.00;69.70;;;;;;5070586;28;20048;-85
2023/06/19 02:10:25;;;;;;;11.07;7.57;;;23.00;69.90;;;;;;5070365;28;20128;-84
2023/06/19 02:12:50;;;;;;;10.13;7.63;;;23.00;70.10;;;;;;5070662;28;20036;-85
2023/06/19 02:15:16;;;;;;;9.68;7.65;;;23.00;70.20;;;;;;5070505;28;20092;-85
2023/06/19 02:17:42;;;;;;;9.65;7.35;;;23.00;70.10;;;;;;5070658;28;20045;-84
2023/06/19 02:20:11;;;;;;;11.45;7.97;;;23.00;71.10;;;;;;5053497;28;20036;-84
2023/06/19 02:22:38;;;;;;;11.55;7.75;;;22.90;70.70;;;;;;5070435;28;20168;-84
2023/06/19 02:25:04;;;;;;;9.95;7.30;;;22.90;70.70;;;;;;5070314;28;20167;-85
2023/06/19 02:27:30;;;;;;;9.88;7.40;;;22.90;70.60;;;;;;5053612;28;20067;-85
2023/06/19 02:29:55;;;;;;;9.70;8.02;;;22.90;70.70;;;;;;5069952;28;20040;-84
2023/06/19 02:32:21;;;;;;;10.02;7.82;;;22.90;71.10;;;;;;5053885;28;20041;-85
2023/06/19 02:34:46;;;;;;;10.60;8.23;;;22.90;71.40;;;;;;5053627;28;20082;-85
2023/06/19 02:37:12;;;;;;;10.10;7.40;;;22.80;71.60;;;;;;5053699;28;20036;-85
2023/06/19 02:39:38;;;;;;;11.90;7.82;;;22.80;71.90;;;;;;5070360;28;20134;-85
2023/06/19 02:42:04;;;;;;;10.63;7.95;;;22.80;72.30;;;;;;5053829;28;20589;-85
2023/06/19 02:44:30;;;;;;;10.82;8.13;;;22.80;72.70;;;;;;5070097;28;20049;-85
2023/06/19 02:46:55;;;;;;;10.02;7.18;;;22.80;73.10;;;;;;5070394;28;20127;-85
2023/06/19 02:49:21;;;;;;;11.48;7.70;;;22.80;73.40;;;;;;5070172;28;20660;-85
2023/06/19 02:51:46;;;;;;;10.45;7.05;;;22.80;73.60;;;;;;5070113;28;20051;-85
2023/06/19 02:54:12;;;;;;;12.10;7.00;;;22.80;73.90;;;;;;5070450;28;20537;-85
2023/06/19 02:56:38;;;;;;;10.57;7.78;;;22.70;74.10;;;;;;5053674;28;20033;-85
2023/06/19 02:59:04;;;;;;;10.95;7.82;;;22.70;74.20;;;;;;5053307;28;20506;-84
2023/06/19 03:01:30;;;;;;;9.73;6.82;;;22.70;74.60;;;;;;5053035;28;20033;-84
2023/06/19 03:03:55;;;;;;;11.13;7.45;;;22.70;74.80;;;;;;5053238;28;20182;-85
2023/06/19 03:06:21;;;;;;;11.05;7.28;;;22.70;75.20;;;;;;5069999;28;20535;-84
2023/06/19 03:08:46;;;;;;;10.38;7.55;;;22.70;75.70;;;;;;5070296;28;20032;-85
2023/06/19 03:11:12;;;;;;;10.10;7.07;;;22.60;75.90;;;;;;5072101;28;20516;-85
2023/06/19 03:13:50;;;;;;;12.48;7.40;;;22.60;76.40;;;;;;5073534;28;20434;-85
2023/06/19 03:16:16;;;;;;;10.55;7.60;;;22.60;76.80;;;;;;5057177;28;20494;-85
2023/06/19 03:18:44;;;;;;;9.90;6.95;;;22.60;77.40;;;;;;5073472;28;20044;-84
2023/06/19 03:21:10;;;;;;;10.73;7.05;;;22.50;77.90;;;;;;5073601;28;20436;-84
2023/06/19 03:23:36;;;;;;;9.73;7.50;;;22.50;78.40;;;;;;5056975;28;20397;-84
2023/06/19 03:26:02;;;;;;;11.20;7.05;;;22.50;78.70;;;;;;5073208;28;20043;-84
2023/06/19 03:28:28;;;;;;;9.60;6.60;;;22.40;79.00;;;;;;5056840;28;20082;-85
2023/06/19 03:30:53;;;;;;;10.25;6.88;;;22.40;79.60;;;;;;5056384;28;20032;-84
2023/06/19 03:33:19;;;;;;;10.73;6.72;;;22.40;79.90;;;;;;5073508;28;20083;-85
2023/06/19 03:35:44;;;;;;;10.98;7.38;;;22.30;80.40;;;;;;5073440;28;20036;-85
2023/06/19 03:38:10;;;;;;;12.32;7.35;;;22.30;80.70;;;;;;5073552;28;20123;-84
2023/06/19 03:40:36;;;;;;;10.02;6.88;;;22.30;81.20;;;;;;5056476;28;20079;-85
2023/06/19 03:43:01;;;;;;;9.93;6.82;;;22.30;81.60;;;;;;5073292;28;20485;-84
2023/06/19 03:45:27;;;;;;;12.02;6.82;;;22.30;81.90;;;;;;5073286;28;20055;-85
2023/06/19 03:47:53;;;;;;;10.80;6.30;;;22.20;82.20;;;;;;5056383;28;20040;-85
2023/06/19 03:50:18;;;;;;;9.63;6.70;;;22.20;82.30;;;;;;5072942;28;20032;-85
2023/06/19 03:52:44;;;;;;;10.52;6.30;;;22.20;82.70;;;;;;5073021;28;20409;-85
2023/06/19 03:55:09;;;;;;;9.75;6.30;;;22.20;82.90;;;;;;5073305;28;20041;-85
2023/06/19 03:57:35;;;;;;;9.55;6.20;;;22.10;83.00;;;;;;5072910;28;20498;-84
2023/06/19 04:00:01;;;;;;;10.50;6.50;;;22.10;83.40;;;;;;5072702;28;20044;-85
2023/06/19 04:02:27;;;;;;;9.45;6.00;;;22.10;84.60;;;;;;5073202;28;20044;-85
2023/06/19 04:04:53;;;;;;;10.00;5.70;;;22.10;84.30;;;;;;5072710;28;20036;-85
2023/06/19 04:07:19;;;;;;;8.82;5.45;;;22.10;84.80;;;;;;5072927;28;20032;-85
2023/06/19 04:09:44;;;;;;;9.43;5.80;;;22.10;85.30;;;;;;5056004;28;20515;-84
2023/06/19 04:12:10;;;;;;;9.68;5.65;;;22.10;85.70;;;;;;5072634;28;20044;-85
2023/06/19 04:14:36;;;;;;;9.55;6.10;;;22.10;86.00;;;;;;5055974;28;20107;-85
2023/06/19 04:17:01;;;;;;;8.73;5.85;;;22.00;86.30;;;;;;5072655;28;20040;-84
2023/06/19 04:19:27;;;;;;;10.75;5.70;;;22.00;86.70;;;;;;5056049;28;20068;-85
2023/06/19 04:21:54;;;;;;;10.07;6.15;;;22.00;87.20;;;;;;5071980;28;20494;-85
2023/06/19 04:24:20;;;;;;;10.38;5.50;;;21.90;87.30;;;;;;5072440;28;20048;-85
2023/06/19 04:26:45;;;;;;;8.93;5.68;;;21.90;87.90;;;;;;5072703;28;20123;-85
2023/06/19 04:29:16;;;;;;;10.05;6.10;;;21.90;88.60;;;;;;5072480;28;20402;-84
2023/06/19 04:31:48;;;;;;;9.13;5.63;;;21.90;89.30;;;;;;5072354;28;20565;-85
2023/06/19 04:34:22;;;;;;;8.88;5.40;;;21.80;89.50;;;;;;5055756;28;20036;-85
2023/06/19 04:36:48;;;;;;;8.98;5.50;;;21.80;90.00;;;;;;5072327;28;20043;-85
2023/06/19 04:39:15;;;;;;;10.70;5.57;;;21.80;90.60;;;;;;5072405;28;20037;-85
2023/06/19 04:41:43;;;;;;;11.07;5.70;;;21.70;90.90;;;;;;5071938;28;20135;-84
2023/06/19 04:44:12;;;;;;;9.38;5.07;;;21.70;91.20;;;;;;5055668;28;20040;-84
2023/06/19 04:46:38;;;;;;;10.23;5.68;;;21.70;91.80;;;;;;5072140;28;20044;-84
2023/06/19 04:49:05;;;;;;;9.98;5.78;;;21.70;91.90;;;;;;5072204;28;20493;-85
2023/06/19 04:51:32;;;;;;;8.75;5.20;;;21.70;92.70;;;;;;5055050;28;20040;-85
2023/06/19 04:53:58;;;;;;;9.25;5.45;;;21.70;93.00;;;;;;5071809;28;20494;-85
2023/06/19 04:56:24;;;;;;;9.32;5.70;;;21.70;93.70;;;;;;5072336;28;20516;-85
2023/06/19 04:58:51;;;;;;;9.75;6.22;;;21.70;93.80;;;;;;5071915;28;20040;-85
2023/06/19 05:01:17;;;;;;;9.23;5.55;;;21.70;94.30;;;;;;5054733;28;20123;-85
2023/06/19 05:03:45;;;;;;;8.65;4.63;;;21.70;94.80;;;;;;5071760;28;20440;-85
2023/06/19 05:06:11;;;;;;;9.05;4.38;;;21.60;95.50;;;;;;5054879;28;20047;-85
2023/06/19 05:08:37;;;;;;;8.63;4.40;;;21.50;96.80;;;;;;5052685;28;20029;-85
2023/06/19 05:11:03;;;;;;;8.07;4.57;;;21.50;98.20;;;;;;5054040;28;20036;-84
2023/06/19 05:13:28;;;;;;;8.35;4.15;;;21.40;99.60;;;;;;5071071;28;20075;-85
2023/06/19 05:15:55;;;;;;;8.98;4.47;;;21.30;99.90;;;;;;5054914;28;20090;-85
2023/06/19 05:18:22;;;;;;;8.23;5.18;;;21.20;99.90;;;;;;5053720;28;20078;-85
2023/06/19 05:20:47;;;;;;;7.40;4.18;;;21.20;99.90;;;;;;5071163;28;20490;-84
2023/06/19 05:23:13;;;;;;;7.28;4.43;;;21.20;99.90;;;;;;5054893;28;20094;-85
2023/06/19 05:25:38;;;;;;;8.20;4.68;;;21.10;99.90;;;;;;5071363;28;20410;-85
2023/06/19 05:28:04;;;;;;;8.13;4.50;;;21.10;99.90;;;;;;5071277;28;20410;-85
2023/06/19 05:30:30;;;;;;;8.25;4.90;;;21.10;99.90;;;;;;5070976;28;20131;-85
2023/06/19 05:32:55;;;;;;;8.68;4.68;;;21.20;99.90;;;;;;5070896;28;20040;-84
2023/06/19 05:35:21;;;;;;;7.95;4.30;;;21.20;99.90;;;;;;5070690;28;20131;-84
2023/06/19 05:37:47;;;;;;;7.72;4.78;;;21.20;99.90;;;;;;5071109;28;20036;-84
2023/06/19 05:40:13;;;;;;;10.60;4.85;;;21.30;99.90;;;;;;5054069;28;20051;-85
2023/06/19 05:42:40;;;;;;;8.40;4.65;;;21.30;99.90;;;;;;5071022;28;20170;-85
2023/06/19 05:45:06;;;;;;;7.65;4.72;;;21.30;99.90;;;;;;5070887;28;20101;-85
2023/06/19 05:47:32;;;;;;;7.65;4.60;;;21.30;99.90;;;;;;5070988;28;20039;-85
2023/06/19 05:49:58;;;;;;;8.93;4.90;;;21.30;99.90;;;;;;5070547;28;20040;-85
2023/06/19 05:52:24;;;;;;;8.80;4.90;;;21.30;99.90;;;;;;5054332;28;20398;-85
2023/06/19 05:54:49;;;;;;;8.10;4.95;;;21.30;99.90;;;;;;5054501;28;20126;-85
2023/06/19 05:57:16;;;;;;;8.13;4.72;;;21.30;99.90;;;;;;5071008;28;20497;-85
2023/06/19 05:59:42;;;;;;;8.88;5.22;;;21.30;99.90;;;;;;5069812;28;20045;-85
2023/06/19 06:02:07;;;;;;;8.93;4.40;;;21.30;99.90;;;;;;5070853;28;20041;-85
2023/06/19 06:04:34;;;;;;;8.38;4.55;;;21.30;99.90;;;;;;5070579;28;20035;-85
2023/06/19 06:07:00;;;;;;;7.97;4.95;;;21.40;99.90;;;;;;5069613;28;20486;-85
2023/06/19 06:09:27;;;;;;;7.70;4.70;;;21.40;99.90;;;;;;5069287;28;20031;-85
2023/06/19 06:11:53;;;;;;;7.97;4.63;;;21.40;99.90;;;;;;5069617;28;20036;-85
2023/06/19 06:14:18;;;;;;;8.75;4.68;;;21.40;99.90;;;;;;5069783;28;20119;-85
2023/06/19 06:16:44;;;;;;;9.00;4.68;;;21.40;99.90;;;;;;5070474;28;20122;-85
2023/06/19 06:19:10;;;;;;;8.77;4.55;;;21.40;99.90;;;;;;5053213;28;20565;-85
2023/06/19 06:21:36;;;;;;;7.82;5.03;;;21.40;99.90;;;;;;5070146;28;20039;-85
2023/06/19 06:24:02;;;;;;;7.18;4.45;;;21.40;99.90;;;;;;5070362;28;20496;-85
2023/06/19 06:26:28;;;;;;;9.02;4.90;;;21.40;99.90;;;;;;5053400;28;20051;-85
2023/06/19 06:28:54;;;;;;;8.70;5.03;;;21.50;99.90;;;;;;5054008;28;20469;-85
2023/06/19 06:31:20;;;;;;;9.25;5.30;;;21.40;99.90;;;;;;5070037;28;20082;-84
2023/06/19 06:33:45;;;;;;;9.10;5.30;;;21.40;99.90;;;;;;5053946;28;20036;-84
2023/06/19 06:36:11;;;;;;;9.05;5.00;;;21.40;99.90;;;;;;5070247;28;20604;-85
2023/06/19 06:38:37;;;;;;;8.40;4.97;;;21.40;99.90;;;;;;5070589;28;20040;-85
2023/06/19 06:41:03;;;;;;;8.00;5.50;;;21.50;99.90;;;;;;5053241;28;20456;-85
2023/06/19 06:43:28;;;;;;;8.43;5.57;;;21.50;99.90;;;;;;5070288;28;20131;-85
2023/06/19 06:45:54;;;;;;;9.38;6.25;;;21.60;99.90;;;;;;5055750;28;20036;-85
2023/06/19 06:48:20;;;;;;;9.30;6.10;;;21.60;99.90;;;;;;5074308;28;20044;-85
2023/06/19 06:50:46;;;;;;;9.80;6.38;;;21.60;99.90;;;;;;5057293;28;20494;-85
2023/06/19 06:53:11;;;;;;;9.27;6.10;;;21.60;99.90;;;;;;5074205;28;20042;-85
2023/06/19 06:55:37;;;;;;;9.45;5.97;;;21.60;99.90;;;;;;5057884;28;20080;-85
2023/06/19 06:58:03;;;;;;;9.95;5.95;;;21.70;99.90;;;;;;5057739;28;20123;-85
2023/06/19 07:00:29;;;;;;;11.02;6.35;;;21.70;99.90;;;;;;5057295;28;20046;-85
2023/06/19 07:02:54;;;;;;;9.00;5.80;;;21.70;99.90;;;;;;5070411;28;20048;-85
2023/06/19 07:05:20;;;;;;;10.30;6.05;;;21.80;99.90;;;;;;5052404;28;20124;-85
2023/06/19 07:07:46;;;;;;;13.27;6.55;;;21.80;99.90;;;;;;5055559;28;20082;-84
2023/06/19 07:10:12;;;;;;;9.68;6.38;;;21.80;99.90;;;;;;5071494;28;20036;-85
2023/06/19 07:12:48;;;;;;;9.05;6.20;;;21.80;99.90;;;;;;5073117;28;20560;-85
2023/06/19 07:15:13;;;;;;;9.30;6.35;;;21.80;99.90;;;;;;5055181;28;20036;-85
2023/06/19 07:17:39;;;;;;;8.80;6.22;;;21.70;99.90;;;;;;5071349;28;20052;-85
2023/06/19 07:20:06;;;;;;;9.07;6.35;;;21.70;99.90;;;;;;5071640;28;20040;-85
2023/06/19 07:22:32;;;;;;;9.30;5.85;;;21.70;99.90;;;;;;5072984;28;20445;-85
2023/06/19 07:24:57;;;;;;;9.68;6.30;;;21.70;99.90;;;;;;5072791;28;20524;-85
2023/06/19 07:27:27;;;;;;;8.60;6.25;;;21.60;99.90;;;;;;5072747;28;20032;-85
2023/06/19 07:29:53;;;;;;;8.52;6.18;;;21.60;99.90;;;;;;5055666;28;20050;-85
2023/06/19 07:32:19;;;;;;;9.90;6.15;;;21.50;99.90;;;;;;5072272;28;20058;-85
2023/06/19 07:34:45;;;;;;;11.23;6.30;;;21.50;99.90;;;;;;5072317;28;20127;-85
2023/06/19 07:37:17;;;;;;;10.40;6.40;;;21.50;99.90;;;;;;5052948;28;20040;-85
2023/06/19 07:39:47;;;;;;;10.88;7.28;;;21.60;99.90;;;;;;5052637;28;20055;-85
2023/06/19 07:42:17;;;;;;;11.00;6.95;;;21.60;99.90;;;;;;5054103;28;20052;-85
2023/06/19 07:44:43;;;;;;;9.52;6.93;;;21.70;99.90;;;;;;5072869;28;20041;-85
2023/06/19 07:47:09;;;;;;;10.20;6.90;;;21.80;99.90;;;;;;5073211;28;20047;-85
2023/06/19 07:49:36;;;;;;;8.82;6.30;;;21.80;99.90;;;;;;5055650;28;20037;-85
2023/06/19 07:52:05;;;;;;;8.93;6.47;;;21.70;99.90;;;;;;5072623;28;20032;-85
2023/06/19 07:54:31;;;;;;;8.02;6.00;;;21.70;99.90;;;;;;5055932;28;20135;-85
2023/06/19 07:56:56;;;;;;;8.57;6.53;;;21.70;99.90;;;;;;5071407;28;20127;-85
2023/06/19 07:59:22;;;;;;;9.88;5.40;;;21.70;99.90;;;;;;5071185;28;20502;-85
2023/06/19 08:01:48;;;;;;;9.02;6.00;;;21.60;99.90;;;;;;5071654;28;20227;-85
2023/06/19 08:04:14;;;;;;;10.25;6.68;;;21.70;99.90;;;;;;5072974;28;20041;-85
2023/06/19 08:06:39;;;;;;;8.70;5.82;;;21.70;99.90;;;;;;5072659;28;20414;-85
2023/06/19 08:09:05;;;;;;;9.35;6.28;;;21.70;99.90;;;;;;5072755;28;20049;-85
2023/06/19 08:11:31;;;;;;;9.68;5.80;;;21.60;99.90;;;;;;5072376;28;20405;-85
2023/06/19 08:13:56;;;;;;;8.45;6.53;;;21.60;99.90;;;;;;5072732;28;20036;-85
2023/06/19 08:16:24;;;;;;;9.13;6.50;;;21.60;99.90;;;;;;5056384;28;20036;-85
2023/06/19 08:18:50;;;;;;;9.65;5.75;;;21.60;99.90;;;;;;5072677;28;20048;-85
2023/06/19 08:21:15;;;;;;;8.57;5.05;;;21.60;99.90;;;;;;5055866;28;20044;-85
2023/06/19 08:23:43;;;;;;;8.68;5.10;;;21.60;99.90;;;;;;5056211;28;20040;-85
2023/06/19 08:26:09;;;;;;;8.45;5.43;;;21.70;99.90;;;;;;5055915;28;20049;-85
2023/06/19 08:28:35;;;;;;;9.90;5.95;;;21.80;99.90;;;;;;5072124;28;20120;-85
2023/06/19 08:31:00;;;;;;;9.57;5.93;;;21.90;99.90;;;;;;5072397;28;20184;-85
2023/06/19 08:33:26;;;;;;;9.65;6.63;;;21.90;99.90;;;;;;5056051;28;20524;-85
2023/06/19 08:35:52;;;;;;;8.90;6.93;;;21.90;99.90;;;;;;5055507;28;20502;-85
2023/06/19 08:38:18;;;;;;;11.02;7.80;;;21.90;99.90;;;;;;5072353;28;20040;-85
2023/06/19 08:40:45;;;;;;;10.15;7.28;;;21.90;99.90;;;;;;5071897;28;20040;-85
2023/06/19 08:43:11;;;;;;;9.52;7.82;;;22.00;99.90;;;;;;5055935;28;20083;-84
2023/06/19 08:45:37;;;;;;;10.57;8.48;;;22.00;99.90;;;;;;5072274;28;20076;-85
2023/06/19 08:48:03;;;;;;;10.60;9.50;;;21.90;99.90;;;;;;5072441;28;20083;-85
2023/06/19 08:50:30;;;;;;;11.20;9.40;;;21.80;99.90;;;;;;5071819;28;20033;-85
2023/06/19 08:52:56;;;;;;;10.95;8.85;;;21.70;99.90;;;;;;5055449;28;20086;-84
2023/06/19 08:55:22;;;;;;;10.80;7.93;;;21.60;99.90;;;;;;5071609;28;20425;-85
2023/06/19 08:57:49;;;;;;;9.38;6.63;;;21.50;99.90;;;;;;5051411;28;20137;-85
2023/06/19 09:00:26;;;;;;;9.13;6.10;;;21.40;99.90;;;;;;5067339;28;20052;-85
2023/06/19 09:02:57;;;;;;;10.45;5.93;;;21.40;99.90;;;;;;5053753;28;20040;-85
2023/06/19 09:05:23;;;;;;;8.57;6.38;;;21.40;99.90;;;;;;5070777;28;20406;-85
2023/06/19 09:08:02;;;;;;;10.10;7.22;;;21.30;99.90;;;;;;5070287;28;20445;-85
2023/06/19 09:10:28;;;;;;;10.30;7.32;;;21.40;99.90;;;;;;5069883;28;20032;-85
2023/06/19 09:13:01;;;;;;;11.52;8.50;;;21.40;99.90;;;;;;5054258;28;20029;-85
2023/06/19 09:15:30;;;;;;;11.73;7.95;;;21.40;99.90;;;;;;5071239;28;20414;-85
2023/06/19 09:18:07;;;;;;;10.32;7.80;;;21.40;99.90;;;;;;5053548;28;20493;-85
2023/06/19 09:20:43;;;;;;;11.65;8.55;;;21.50;99.90;;;;;;5053287;28;20124;-85
2023/06/19 09:23:09;;;;;;;10.45;9.02;;;21.50;99.90;;;;;;5070742;28;20051;-85
2023/06/19 09:25:49;;;;;;;11.75;9.02;;;21.60;99.90;;;;;;5070769;28;20051;-85
2023/06/19 09:28:22;;;;;;;10.77;8.82;;;21.70;99.90;;;;;;5070838;28;20040;-85
2023/06/19 09:31:14;;;;;;;10.85;8.20;;;21.80;99.90;;;;;;5070468;28;20032;-85
2023/06/19 09:33:40;;;;;;;12.63;10.10;;;22.00;99.90;;;;;;5068060;28;20048;-85
2023/06/19 09:36:06;;;;;;;11.98;10.60;;;22.10;99.90;;;;;;5052939;28;20290;-85
2023/06/19 09:38:34;;;;;;;11.70;9.82;;;22.20;99.90;;;;;;5068371;28;20055;-85
2023/06/19 09:41:05;;;;;;;13.00;10.55;;;22.20;99.90;;;;;;5067840;28;20103;-85
2023/06/19 09:43:43;;;;;;;12.20;10.48;;;22.30;99.90;;;;;;5068783;28;20229;-85
2023/06/19 09:46:10;;;;;;;13.07;11.68;;;22.40;99.90;;;;;;5068026;28;20047;-85
2023/06/19 09:48:42;;;;;;;12.15;10.00;;;22.60;99.90;;;;;;5068615;28;20623;-85
2023/06/19 09:51:23;;;;;;;13.18;11.38;;;22.70;99.90;;;;;;5068750;28;20039;-85
2023/06/19 09:53:50;;;;;;;12.13;10.30;;;22.90;99.90;;;;;;5070473;28;20040;-85
2023/06/19 09:56:21;;;;;;;12.70;9.07;;;22.90;99.80;;;;;;5070226;28;20043;-85
2023/06/19 09:58:49;;;;;;;10.27;8.75;;;22.90;99.00;;;;;;5052763;28;20036;-85
2023/06/19 10:01:18;;;;;;;11.07;9.40;;;23.00;99.20;;;;;;5070368;28;20041;-85
2023/06/19 10:03:44;;;;;;;13.55;10.32;;;23.10;99.20;;;;;;5070467;28;20041;-85
2023/06/19 10:06:19;;;;;;;12.55;9.93;;;23.20;98.40;;;;;;5070709;28;20044;-85
2023/06/19 10:08:45;;;;;;;11.38;8.98;;;23.30;97.10;;;;;;5070459;28;20036;-85
2023/06/19 10:11:11;;;;;;;13.65;8.95;;;23.30;97.20;;;;;;5053899;28;20039;-85
2023/06/19 10:13:40;;;;;;;12.82;8.48;;;23.30;98.00;;;;;;5070581;28;20041;-85
2023/06/19 10:16:07;;;;;;;9.98;7.28;;;23.20;96.60;;;;;;5070676;28;20131;-85
2023/06/19 10:18:45;;;;;;;13.32;6.47;;;23.20;95.30;;;;;;5070426;28;20417;-85
2023/06/19 10:21:21;;;;;;;8.55;6.45;;;23.30;96.20;;;;;;5052269;28;20123;-85
2023/06/19 10:23:58;;;;;;;10.43;6.95;;;23.40;95.00;;;;;;5053936;28;20040;-85
2023/06/19 10:26:35;;;;;;;9.95;6.72;;;23.30;94.80;;;;;;5070586;28;20052;-85
2023/06/19 10:29:12;;;;;;;11.73;7.50;;;23.30;95.00;;;;;;5070501;28;20051;-85
2023/06/19 10:31:38;;;;;;;10.68;6.65;;;23.20;95.10;;;;;;5070229;28;20045;-85
2023/06/19 10:34:04;;;;;;;11.75;6.72;;;23.30;95.40;;;;;;5070646;28;20035;-86
2023/06/19 10:36:30;;;;;;;9.60;6.85;;;23.30;95.10;;;;;;5070375;28;20464;-85
2023/06/19 10:38:55;;;;;;;10.05;6.60;;;23.40;95.20;;;;;;5069982;28;20033;-85
2023/06/19 10:41:23;;;;;;;9.57;6.82;;;23.60;94.70;;;;;;5069334;28;20047;-85
2023/06/19 10:44:04;;;;;;;11.55;7.65;;;23.60;94.30;;;;;;5052846;28;20119;-85
2023/06/19 10:46:32;;;;;;;10.60;7.72;;;23.70;94.40;;;;;;5066859;28;20036;-85
2023/06/19 10:49:00;;;;;;;11.40;7.82;;;23.70;94.70;;;;;;5069840;28;20068;-85
2023/06/19 10:51:28;;;;;;;12.40;7.85;;;23.70;94.50;;;;;;5053401;28;20041;-85
2023/06/19 10:53:55;;;;;;;11.55;7.95;;;23.60;93.90;;;;;;5070400;28;20037;-85
2023/06/19 10:56:21;;;;;;;11.82;8.55;;;23.80;94.60;;;;;;5053836;28;20109;-85
2023/06/19 10:58:47;;;;;;;13.98;7.97;;;23.80;93.60;;;;;;5053278;28;20048;-86
2023/06/19 11:01:13;;;;;;;11.82;8.32;;;23.90;93.50;;;;;;5053174;28;20060;-85
2023/06/19 11:03:39;;;;;;;11.90;8.30;;;23.90;92.60;;;;;;5070234;28;20063;-86
2023/06/19 11:06:04;;;;;;;13.80;9.68;;;23.90;91.70;;;;;;5070149;28;20083;-86
2023/06/19 11:08:30;;;;;;;12.57;9.27;;;23.90;92.50;;;;;;5053470;28;20040;-85
2023/06/19 11:10:56;;;;;;;11.38;8.80;;;23.90;93.50;;;;;;5053085;28;20047;-86
2023/06/19 11:13:22;;;;;;;17.10;9.38;;;24.10;93.40;;;;;;5069969;28;20033;-86
2023/06/19 11:15:51;;;;;;;11.88;8.63;;;24.00;91.80;;;;;;5070298;28;20119;-86
2023/06/19 11:18:17;;;;;;;12.85;8.52;;;24.00;92.10;;;;;;5070228;28;20036;-85
2023/06/19 11:20:51;;;;;;;11.35;8.60;;;24.20;91.10;;;;;;5053246;28;20374;-86
2023/06/19 11:23:30;;;;;;;13.02;8.38;;;24.10;90.10;;;;;;5070013;28;20121;-86
2023/06/19 11:26:03;;;;;;;12.18;7.07;;;24.20;91.40;;;;;;5069902;28;20090;-85
2023/06/19 11:28:29;;;;;;;12.88;7.97;;;24.10;89.60;;;;;;5069957;28;20402;-85
2023/06/19 11:30:59;;;;;;;10.93;7.38;;;24.20;89.10;;;;;;5053215;28;20029;-86
2023/06/19 11:33:25;;;;;;;12.38;7.47;;;24.20;88.20;;;;;;5057007;28;20047;-86
2023/06/19 11:35:52;;;;;;;10.80;7.15;;;24.20;88.20;;;;;;5073593;28;20040;-86
2023/06/19 11:38:25;;;;;;;10.73;6.90;;;24.30;88.20;;;;;;5071263;28;20037;-86
2023/06/19 11:40:52;;;;;;;11.25;6.95;;;24.50;88.80;;;;;;5071867;28;20123;-85
2023/06/19 11:43:24;;;;;;;12.73;7.72;;;24.70;88.30;;;;;;5073846;28;20047;-85
2023/06/19 11:45:51;;;;;;;14.10;8.43;;;24.70;84.50;;;;;;5072329;28;20051;-86
2023/06/19 11:48:26;;;;;;;10.45;7.30;;;24.70;85.00;;;;;;5055483;28;20040;-85
2023/06/19 11:50:53;;;;;;;10.95;7.75;;;24.80;87.10;;;;;;5072016;28;20036;-85
2023/06/19 11:53:22;;;;;;;17.08;7.75;;;24.90;86.70;;;;;;5072682;28;20036;-86
2023/06/19 11:55:48;;;;;;;15.18;8.45;;;25.00;86.30;;;;;;5072502;28;20040;-86
2023/06/19 11:58:18;;;;;;;11.98;7.85;;;25.10;84.10;;;;;;5073019;28;20050;-86
2023/06/19 12:00:43;;;;;;;13.25;7.88;;;25.00;84.10;;;;;;5072681;28;20454;-86
2023/06/19 12:03:09;;;;;;;12.50;7.80;;;25.20;83.90;;;;;;5056272;28;20079;-86
2023/06/19 12:05:38;;;;;;;11.98;8.32;;;25.20;83.30;;;;;;5055555;28;20049;-86
2023/06/19 12:08:05;;;;;;;14.18;8.88;;;25.20;81.80;;;;;;5072458;28;20128;-86
2023/06/19 12:10:31;;;;;;;12.65;8.07;;;25.30;82.70;;;;;;5072026;28;20072;-86
2023/06/19 12:12:57;;;;;;;11.02;7.70;;;25.30;82.10;;;;;;5072351;28;20037;-86
2023/06/19 12:15:24;;;;;;;11.35;7.90;;;25.40;81.50;;;;;;5055653;28;20045;-86
2023/06/19 12:17:51;;;;;;;12.80;8.55;;;25.30;81.60;;;;;;5072167;28;20123;-86
2023/06/19 12:20:17;;;;;;;11.90;8.27;;;25.20;81.20;;;;;;5072082;28;20044;-86
2023/06/19 12:22:42;;;;;;;10.88;8.27;;;25.20;81.10;;;;;;5072344;28;20036;-86
2023/06/19 12:25:08;;;;;;;12.20;8.02;;;25.30;80.70;;;;;;5072095;28;20123;-86
2023/06/19 12:27:35;;;;;;;11.98;8.73;;;25.20;81.20;;;;;;5071265;28;20460;-86
2023/06/19 12:30:01;;;;;;;12.45;8.30;;;25.20;80.60;;;;;;5071811;28;20041;-86
2023/06/19 12:32:26;;;;;;;12.90;8.80;;;25.30;81.30;;;;;;5054774;28;20033;-86
2023/06/19 12:34:53;;;;;;;14.18;8.70;;;25.30;81.00;;;;;;5071761;28;20123;-86
2023/06/19 12:37:20;;;;;;;13.27;9.63;;;25.40;80.20;;;;;;5072277;28;20047;-86
2023/06/19 12:39:47;;;;;;;13.02;8.32;;;25.50;79.50;;;;;;5071610;28;20048;-86